Humidity-temperature Sensor

Selected Measurement Type: Air Temperature

 
Air Temperature [°C]     6 entries per hour
Showing data from 6/26/2022 (07:00:00 Z) to 6/25/2022 (00:01:00 Z)
Previous Next [ Day | 3-Days | 7-Days ]
First Last
Prev [ Day | 3-Days | 7-Days ] Next
First Last

Start Time:     :
End Time:     :     
Time (in GMT) :00 :50 :40 :30 :20 :10
Previous Next [ Day | 3-Days | 7-Days ]
First Last
Prev [ Day | 3-Days | 7-Days ] Next
First Last


123 => good data
MM => data is determined as missing
-- => data not received/configured
Back to Top Back to Top
6/26/2022 07:00 to 6:10 25.40 25.29 25.49 25.17 25.16 25.95
6/26/2022 06:00 to 5:10 25.54 25.68 26.16 26.10 26.26 26.05
6/26/2022 05:00 to 4:10 25.98 26.11 26.10 26.03 26.06 26.01
6/26/2022 04:00 to 3:10 26.30 26.10 25.94 26.00 25.83 25.96
6/26/2022 03:00 to 2:10 26.08 25.89 26.10 26.04 25.93 25.68
6/26/2022 02:00 to 1:10 25.74 25.73 25.92 25.76 25.61 25.56
6/26/2022 01:00 to 0:10 25.66 25.46 25.84 25.73 25.92 25.93
6/26/2022 00:00 to 23:10 26.00 25.71 25.78 26.11 25.93 25.84
6/25/2022 23:00 to 22:10 25.96 25.76 26.04 25.91 25.86 25.88
6/25/2022 22:00 to 21:10 26.03 25.99 25.96 25.91 26.04 25.93
6/25/2022 21:00 to 20:10 25.83 25.87 25.93 26.30 26.00 26.23
6/25/2022 20:00 to 19:10 26.14 26.10 26.18 26.13 26.16 26.10
6/25/2022 19:00 to 18:10 26.04 25.92 25.95 25.94 26.04 26.16
6/25/2022 18:00 to 17:10 26.25 26.14 26.12 26.22 26.17 26.04
6/25/2022 17:00 to 16:10 26.06 26.00 26.20 25.98 26.03 26.17
6/25/2022 16:00 to 15:10 26.11 26.17 25.97 25.91 25.99 26.29
6/25/2022 15:00 to 14:10 26.22 26.22 26.10 26.22 26.16 26.14
6/25/2022 14:00 to 13:10 25.98 26.16 25.92 26.04 26.14 26.01
6/25/2022 13:00 to 12:10 26.12 26.07 25.98 25.98 26.04 26.14
6/25/2022 12:00 to 11:10 26.06 25.95 26.19 25.96 25.79 25.83
6/25/2022 11:00 to 10:10 25.87 26.04 25.89 25.76 25.77 25.83
6/25/2022 10:00 to 9:10 25.60 25.80 25.87 25.75 25.73 25.76
6/25/2022 09:00 to 8:10 25.78 25.71 25.89 25.81 25.92 25.99
6/25/2022 08:00 to 7:10 25.90 25.90 25.73 26.01 25.72 25.97
6/25/2022 07:00 to 6:10 25.83 25.71 25.89 26.01 25.85 25.99
6/25/2022 06:00 to 5:10 25.81 25.81 25.89 25.89 25.93 25.93
6/25/2022 05:00 to 4:10 25.79 25.75 25.95 25.96 25.74 26.08
6/25/2022 04:00 to 3:10 25.82 25.96 25.88 25.99 25.89 25.81
6/25/2022 03:00 to 2:10 26.00 25.89 26.16 25.92 25.95 25.87
6/25/2022 02:00 to 1:10 25.80 25.75 25.82 25.79 25.78 25.76
6/25/2022 01:00 to 0:10 25.80 25.76 25.93 25.76 26.05 26.04